createdAt,value
2023-01-05T00:04:10.156Z,12.10
2023-01-05T00:09:02.914Z,12.10
2023-01-05T00:14:13.326Z,12.10
2023-01-05T00:19:23.752Z,12.10
2023-01-05T00:24:15.755Z,12.30
2023-01-05T00:29:07.823Z,12.30
2023-01-05T00:33:59.803Z,12.40
2023-01-05T00:38:51.789Z,12.40
2023-01-05T00:43:43.705Z,12.40
2023-01-05T00:48:35.910Z,12.50
2023-01-05T00:53:27.915Z,12.50
2023-01-05T00:58:19.929Z,12.60
2023-01-05T01:03:12.020Z,12.50
2023-01-05T01:08:04.338Z,12.60
2023-01-05T01:12:56.373Z,12.60
2023-01-05T01:17:49.992Z,12.60
2023-01-05T01:22:41.947Z,12.60
2023-01-05T01:27:34.364Z,12.60
2023-01-05T01:32:26.388Z,12.50
2023-01-05T01:37:18.396Z,12.50
2023-01-05T01:42:16.222Z,12.50
2023-01-05T01:47:15.914Z,12.50
2023-01-05T01:52:08.630Z,12.60
2023-01-05T01:57:00.727Z,12.50
2023-01-05T02:01:58.678Z,12.60
2023-01-05T02:13:34.621Z,12.60
2023-01-05T02:18:40.719Z,12.60
2023-01-05T02:23:47.023Z,12.60
2023-01-05T02:28:57.305Z,12.50
2023-01-05T02:34:21.509Z,12.50
2023-01-05T02:39:25.321Z,12.50
2023-01-05T02:44:19.485Z,12.40
2023-01-05T02:49:17.977Z,12.30
2023-01-05T02:54:26.260Z,12.10
2023-01-05T02:59:36.024Z,12.00
2023-01-05T03:04:45.158Z,12.00
2023-01-05T03:09:39.835Z,12.00
2023-01-05T03:14:47.349Z,12.10
2023-01-05T03:19:43.985Z,12.10
2023-01-05T03:24:57.285Z,12.20
2023-01-05T03:30:09.446Z,12.20
2023-01-05T03:35:37.332Z,12.30
2023-01-05T03:40:32.646Z,12.30
2023-01-05T03:45:32.353Z,12.40
2023-01-05T03:50:24.891Z,12.40
2023-01-05T03:55:17.788Z,12.40
2023-01-05T04:00:10.579Z,12.50
2023-01-05T04:05:10.148Z,12.50
2023-01-05T04:10:03.737Z,12.50
2023-01-05T04:14:58.587Z,12.40
2023-01-05T04:19:51.766Z,12.00
2023-01-05T04:24:45.246Z,11.60
2023-01-05T04:29:38.409Z,11.30
2023-01-05T04:34:30.776Z,11.10
2023-01-05T04:39:25.281Z,11.00
2023-01-05T04:44:18.860Z,11.00
2023-01-05T04:49:11.399Z,10.90
2023-01-05T04:54:05.148Z,11.10
2023-01-05T04:58:58.999Z,11.20
2023-01-05T05:03:51.227Z,11.30
2023-01-05T05:08:45.497Z,11.40
2023-01-05T05:13:37.656Z,11.50
2023-01-05T05:18:29.932Z,11.50
2023-01-05T05:23:22.446Z,11.50
2023-01-05T05:28:14.702Z,11.40
2023-01-05T05:33:06.786Z,11.50
2023-01-05T05:37:58.768Z,11.50
2023-01-05T05:42:50.725Z,11.60
2023-01-05T05:47:43.661Z,11.60
2023-01-05T05:52:35.874Z,11.60
2023-01-05T05:57:28.108Z,11.60
2023-01-05T06:02:20.165Z,11.60
2023-01-05T06:07:12.381Z,11.60
2023-01-05T06:12:04.714Z,11.50
2023-01-05T06:16:56.786Z,11.60
2023-01-05T06:21:48.729Z,11.50
2023-01-05T06:26:40.654Z,11.50
2023-01-05T06:31:32.677Z,11.50
2023-01-05T06:36:24.664Z,11.50
2023-01-05T06:41:16.616Z,11.60
2023-01-05T06:46:08.604Z,11.50
2023-01-05T06:51:00.634Z,11.60
2023-01-05T06:55:52.620Z,11.60
2023-01-05T07:00:44.668Z,11.50
2023-01-05T07:05:36.726Z,11.60
2023-01-05T07:10:28.784Z,11.50
2023-01-05T07:15:21.042Z,11.50
2023-01-05T07:20:13.246Z,11.50
2023-01-05T07:25:05.728Z,11.50
2023-01-05T07:29:59.149Z,11.60
2023-01-05T07:34:55.762Z,11.60
2023-01-05T07:39:47.973Z,11.50
2023-01-05T07:44:39.962Z,11.60
2023-01-05T07:49:32.100Z,11.60
2023-01-05T07:54:24.155Z,11.70
2023-01-05T07:59:16.203Z,11.80
2023-01-05T08:04:09.068Z,11.60
2023-01-05T08:09:21.133Z,11.60
2023-01-05T08:14:15.965Z,11.60
2023-01-05T08:19:11.336Z,11.60
2023-01-05T08:24:04.485Z,11.60
2023-01-05T08:28:57.849Z,11.60
2023-01-05T08:33:50.380Z,11.70
2023-01-05T08:38:48.301Z,11.60
2023-01-05T08:43:40.428Z,11.70
2023-01-05T08:48:32.396Z,11.60
2023-01-05T08:53:24.331Z,11.70
2023-01-05T08:58:16.428Z,11.90
2023-01-05T09:03:09.628Z,11.90
2023-01-05T09:08:01.787Z,12.00
2023-01-05T09:12:53.792Z,12.10
2023-01-05T09:17:45.794Z,12.40
2023-01-05T09:22:37.970Z,12.80
2023-01-05T09:27:30.193Z,12.80
2023-01-05T09:32:24.082Z,12.60
2023-01-05T09:37:16.205Z,12.40
2023-01-05T09:42:13.994Z,12.60
2023-01-05T09:47:15.602Z,12.80
2023-01-05T09:52:10.677Z,13.00
2023-01-05T09:57:09.557Z,14.00
2023-01-05T10:02:14.922Z,15.20
2023-01-05T10:07:27.599Z,15.20
2023-01-05T10:13:07.911Z,15.80
2023-01-05T10:18:08.589Z,17.50
2023-01-05T10:23:03.330Z,18.20
2023-01-05T10:28:06.087Z,17.60
2023-01-05T10:33:28.163Z,18.10
2023-01-05T10:38:35.417Z,18.10
2023-01-05T10:43:45.713Z,17.50
2023-01-05T10:48:38.120Z,18.10
2023-01-05T10:53:33.669Z,16.30
2023-01-05T10:58:34.163Z,17.20
2023-01-05T11:09:16.264Z,17.50
2023-01-05T11:14:16.680Z,17.30
2023-01-05T11:19:16.813Z,16.00
2023-01-05T11:24:26.779Z,16.40
2023-01-05T11:29:19.480Z,17.60
2023-01-05T11:34:38.474Z,18.00
2023-01-05T11:39:38.110Z,19.30
2023-01-05T11:44:30.787Z,19.10
2023-01-05T11:49:26.172Z,19.10
2023-01-05T11:54:38.304Z,18.00
2023-01-05T11:59:30.338Z,17.30
2023-01-05T12:04:56.238Z,18.10
2023-01-05T12:09:52.142Z,18.70
2023-01-05T12:14:56.100Z,17.30
2023-01-05T12:19:51.057Z,16.60
2023-01-05T12:25:06.153Z,16.50
2023-01-05T12:35:54.117Z,15.70
2023-01-05T12:41:01.051Z,15.20
2023-01-05T12:46:34.250Z,14.80
2023-01-05T12:51:53.381Z,14.50
2023-01-05T12:56:53.522Z,14.10
2023-01-05T13:02:10.482Z,13.70
2023-01-05T13:07:09.941Z,13.30
2023-01-05T13:12:07.264Z,13.20
2023-01-05T13:17:04.635Z,13.10
2023-01-05T13:21:58.162Z,13.10
2023-01-05T13:26:50.375Z,13.20
2023-01-05T13:32:06.707Z,13.30
2023-01-05T13:37:43.631Z,13.20
2023-01-05T13:42:54.087Z,13.00
2023-01-05T13:48:12.586Z,12.80
2023-01-05T13:53:27.078Z,12.60
2023-01-05T13:58:41.090Z,12.50
2023-01-05T14:03:37.763Z,12.20
2023-01-05T14:08:35.984Z,11.90
2023-01-05T14:13:59.599Z,11.50
2023-01-05T14:18:52.903Z,11.30
2023-01-05T14:23:44.929Z,11.10
2023-01-05T14:28:42.263Z,10.90
2023-01-05T14:33:46.083Z,10.80
2023-01-05T14:38:38.476Z,10.60
2023-01-05T14:43:35.614Z,10.50
2023-01-05T14:48:32.897Z,10.50
2023-01-05T14:53:43.228Z,10.40
2023-01-05T14:58:43.665Z,10.40
2023-01-05T15:03:44.086Z,10.40
2023-01-05T15:09:00.025Z,10.30
2023-01-05T15:14:22.448Z,10.30
2023-01-05T15:19:43.542Z,10.30
2023-01-05T15:24:44.273Z,10.30
2023-01-05T15:30:04.735Z,10.30
2023-01-05T15:35:21.890Z,10.20
2023-01-05T15:40:22.673Z,10.20
2023-01-05T15:45:23.827Z,10.10
2023-01-05T15:50:40.152Z,10.10
2023-01-05T15:55:32.191Z,10.10
2023-01-05T16:00:26.123Z,10.10
2023-01-05T16:05:29.717Z,10.00
2023-01-05T16:10:29.443Z,10.00
2023-01-05T16:15:23.910Z,10.00
2023-01-05T16:20:24.012Z,10.00
2023-01-05T16:25:30.693Z,10.00
2023-01-05T16:30:39.096Z,10.00
2023-01-05T16:35:46.338Z,10.00
2023-01-05T16:40:50.308Z,10.00
2023-01-05T16:45:42.251Z,10.00
2023-01-05T16:50:38.165Z,9.90
2023-01-05T16:55:37.721Z,9.90
2023-01-05T17:00:29.956Z,9.80
2023-01-05T17:05:25.100Z,9.70
2023-01-05T17:10:26.129Z,9.60
2023-01-05T17:15:22.312Z,9.50
2023-01-05T17:20:14.536Z,9.50
2023-01-05T17:25:09.909Z,9.50
2023-01-05T17:30:03.505Z,9.50
2023-01-05T17:34:55.389Z,9.50
2023-01-05T17:39:47.426Z,9.50
2023-01-05T17:44:39.352Z,9.50
2023-01-05T17:49:32.913Z,9.50
2023-01-05T17:54:24.896Z,9.50
2023-01-05T17:59:16.863Z,9.50
2023-01-05T18:04:08.857Z,9.60
2023-01-05T18:09:00.938Z,9.60
2023-01-05T18:13:53.228Z,9.60
2023-01-05T18:18:45.236Z,9.60
2023-01-05T18:23:37.211Z,9.60
2023-01-05T18:28:29.247Z,9.60
2023-01-05T18:33:21.465Z,9.50
2023-01-05T18:38:13.617Z,9.60
2023-01-05T18:43:05.583Z,9.60
2023-01-05T18:47:58.553Z,9.60
2023-01-05T18:52:50.635Z,9.60
2023-01-05T18:57:42.696Z,9.60
2023-01-05T19:02:34.640Z,9.60
2023-01-05T19:07:26.745Z,9.60
2023-01-05T19:12:18.825Z,9.60
2023-01-05T19:17:10.823Z,9.50
2023-01-05T19:22:03.591Z,9.40
2023-01-05T19:26:55.629Z,9.30
2023-01-05T19:31:49.239Z,9.30
2023-01-05T19:36:41.417Z,9.30
2023-01-05T19:41:33.424Z,9.30
2023-01-05T19:46:26.730Z,9.30
2023-01-05T19:51:25.690Z,9.30
2023-01-05T19:56:17.633Z,9.30
2023-01-05T20:01:12.991Z,9.30
2023-01-05T20:06:11.733Z,9.30
2023-01-05T20:11:11.699Z,9.30
2023-01-05T20:16:06.574Z,9.40
2023-01-05T20:21:00.635Z,9.30
2023-01-05T20:25:52.597Z,9.30
2023-01-05T20:30:45.037Z,9.30
2023-01-05T20:35:40.779Z,9.40
2023-01-05T20:40:32.826Z,9.30
2023-01-05T20:45:24.801Z,9.30
2023-01-05T20:50:16.861Z,9.20
2023-01-05T20:55:09.010Z,9.20
2023-01-05T21:00:00.954Z,9.20
2023-01-05T21:04:53.656Z,9.10
2023-01-05T21:09:47.022Z,9.00
2023-01-05T21:14:39.049Z,8.90
2023-01-05T21:19:31.085Z,8.90
2023-01-05T21:24:24.656Z,8.90
2023-01-05T21:29:19.287Z,8.90
2023-01-05T21:34:15.106Z,8.90
2023-01-05T21:39:09.116Z,8.90
2023-01-05T21:44:01.064Z,8.90
2023-01-05T21:48:53.033Z,8.80
2023-01-05T21:54:03.494Z,8.80
2023-01-05T21:58:57.665Z,8.80
2023-01-05T22:03:49.853Z,8.70
2023-01-05T22:08:41.791Z,8.70
2023-01-05T22:13:36.253Z,8.70
2023-01-05T22:18:28.243Z,8.80
2023-01-05T22:23:20.433Z,8.80
2023-01-05T22:28:12.395Z,8.70
2023-01-05T22:33:04.325Z,8.70
2023-01-05T22:37:56.420Z,8.70
2023-01-05T22:42:48.415Z,8.70
2023-01-05T22:47:40.422Z,8.80
2023-01-05T22:52:32.543Z,8.80
2023-01-05T22:57:24.538Z,8.80
2023-01-05T23:02:16.758Z,8.80
2023-01-05T23:07:09.159Z,8.90
2023-01-05T23:12:01.487Z,8.90
2023-01-05T23:16:53.489Z,8.90
2023-01-05T23:21:45.877Z,9.00
2023-01-05T23:26:38.100Z,9.00
2023-01-05T23:31:30.193Z,8.90
2023-01-05T23:36:23.710Z,8.90
2023-01-05T23:41:17.291Z,8.90
2023-01-05T23:46:13.816Z,8.90
2023-01-05T23:51:11.353Z,8.80
2023-01-05T23:56:09.037Z,8.80
